<?xml version="1.0" encoding="UTF-8" standalone="no" ?>
<gpx xmlns="http://www.topografix.com/GPX/1/1" xmlns:xsi="http://www.w3.org/2001/XMLSchema-instance" xsi:schemaLocation="http://www.topografix.com/GPX/1/1 http://www.topografix.com/GPX/1/1/gpx.xsd" version="1.1" creator="VisuGPX - https://www.visugpx.com">
  <metadata>
    <name>NF_2026 (12 km)</name>
    <desc><![CDATA[Nordique Francilienne 2026]]></desc>
  </metadata>
  <trk>
    <name><![CDATA[NF_2026 (12 km)]]></name>
    <trkseg>
      <trkpt lat="48.53866" lon="2.07945">
        <ele>82.92805</ele>
        <time>2025-10-14T15:11:57.437Z</time>
      </trkpt>
      <trkpt lat="48.53863" lon="2.07959">
        <ele>82.92805</ele>
        <time>2025-10-14T15:12:07.636Z</time>
      </trkpt>
      <trkpt lat="48.53876" lon="2.07987">
        <ele>82.92805</ele>
        <time>2025-10-14T15:12:30.987Z</time>
      </trkpt>
      <trkpt lat="48.53885" lon="2.07981">
        <ele>82.92805</ele>
        <time>2025-10-14T15:12:41.524Z</time>
      </trkpt>
      <trkpt lat="48.53893" lon="2.07975">
        <ele>82.92805</ele>
        <time>2025-10-14T15:12:51.218Z</time>
      </trkpt>
      <trkpt lat="48.53923" lon="2.07952">
        <ele>82.92805</ele>
        <time>2025-10-14T15:13:29.565Z</time>
      </trkpt>
      <trkpt lat="48.53924" lon="2.07942">
        <ele>82.967435</ele>
        <time>2025-10-14T15:13:37.345Z</time>
      </trkpt>
      <trkpt lat="48.53931" lon="2.07939">
        <ele>83.130405</ele>
        <time>2025-10-14T15:13:45.060Z</time>
      </trkpt>
      <trkpt lat="48.53934" lon="2.07943">
        <ele>83.231159</ele>
        <time>2025-10-14T15:13:49.745Z</time>
      </trkpt>
      <trkpt lat="48.53993" lon="2.07887">
        <ele>84.903485</ele>
        <time>2025-10-14T15:15:08.004Z</time>
      </trkpt>
      <trkpt lat="48.54" lon="2.07883">
        <ele>85.082343</ele>
        <time>2025-10-14T15:15:16.166Z</time>
      </trkpt>
      <trkpt lat="48.54007" lon="2.07879">
        <ele>85.271329</ele>
        <time>2025-10-14T15:15:24.959Z</time>
      </trkpt>
      <trkpt lat="48.54033" lon="2.08037">
        <ele>87.276131</ele>
        <time>2025-10-14T15:17:18.380Z</time>
      </trkpt>
      <trkpt lat="48.54104" lon="2.08575">
        <ele>87.093027</ele>
        <time>2025-10-14T15:23:23.402Z</time>
      </trkpt>
      <trkpt lat="48.54184" lon="2.09141">
        <ele>88.15242</ele>
        <time>2025-10-14T15:29:51.505Z</time>
      </trkpt>
      <trkpt lat="48.54197" lon="2.09232">
        <ele>88.358514</ele>
        <time>2025-10-14T15:30:54.062Z</time>
      </trkpt>
      <trkpt lat="48.54199" lon="2.09246">
        <ele>88.390011</ele>
        <time>2025-10-14T15:31:03.553Z</time>
      </trkpt>
      <trkpt lat="48.54212" lon="2.09365">
        <ele>89.744809</ele>
        <time>2025-10-14T15:32:26.545Z</time>
      </trkpt>
      <trkpt lat="48.54254" lon="2.0941">
        <ele>92.281577</ele>
        <time>2025-10-14T15:33:23.110Z</time>
      </trkpt>
      <trkpt lat="48.54262" lon="2.09419">
        <ele>92.808815</ele>
        <time>2025-10-14T15:33:35.318Z</time>
      </trkpt>
      <trkpt lat="48.54296" lon="2.0947">
        <ele>95.195084</ele>
        <time>2025-10-14T15:34:32.812Z</time>
      </trkpt>
      <trkpt lat="48.54307" lon="2.09482">
        <ele>95.857598</ele>
        <time>2025-10-14T15:34:49.484Z</time>
      </trkpt>
      <trkpt lat="48.54335" lon="2.09497">
        <ele>97.332404</ele>
        <time>2025-10-14T15:35:27.040Z</time>
      </trkpt>
      <trkpt lat="48.54341" lon="2.09506">
        <ele>97.950506</ele>
        <time>2025-10-14T15:35:38.000Z</time>
      </trkpt>
      <trkpt lat="48.5435" lon="2.09552">
        <ele>101.124923</ele>
        <time>2025-10-14T15:36:20.626Z</time>
      </trkpt>
      <trkpt lat="48.54358" lon="2.09566">
        <ele>102.314637</ele>
        <time>2025-10-14T15:36:36.931Z</time>
      </trkpt>
      <trkpt lat="48.54373" lon="2.09568">
        <ele>103.713421</ele>
        <time>2025-10-14T15:36:56.279Z</time>
      </trkpt>
      <trkpt lat="48.544" lon="2.09552">
        <ele>106.559995</ele>
        <time>2025-10-14T15:37:36.669Z</time>
      </trkpt>
      <trkpt lat="48.54431" lon="2.09523">
        <ele>110.15571</ele>
        <time>2025-10-14T15:38:28.255Z</time>
      </trkpt>
      <trkpt lat="48.54449" lon="2.09521">
        <ele>111.966983</ele>
        <time>2025-10-14T15:38:53.345Z</time>
      </trkpt>
      <trkpt lat="48.54498" lon="2.09556">
        <ele>116.00736</ele>
        <time>2025-10-14T15:40:04.607Z</time>
      </trkpt>
      <trkpt lat="48.54501" lon="2.0955">
        <ele>116.221114</ele>
        <time>2025-10-14T15:40:11.896Z</time>
      </trkpt>
      <trkpt lat="48.54593" lon="2.09512">
        <ele>119.872937</ele>
        <time>2025-10-14T15:42:02.590Z</time>
      </trkpt>
      <trkpt lat="48.54635" lon="2.09499">
        <ele>121.508053</ele>
        <time>2025-10-14T15:42:45.505Z</time>
      </trkpt>
      <trkpt lat="48.54651" lon="2.09494">
        <ele>122.072183</ele>
        <time>2025-10-14T15:43:02.157Z</time>
      </trkpt>
      <trkpt lat="48.54779" lon="2.09461">
        <ele>120.303077</ele>
        <time>2025-10-14T15:45:17.186Z</time>
      </trkpt>
      <trkpt lat="48.54807" lon="2.09453">
        <ele>119.913402</ele>
        <time>2025-10-14T15:45:47.103Z</time>
      </trkpt>
      <trkpt lat="48.54879" lon="2.0943">
        <ele>121.643533</ele>
        <time>2025-10-14T15:47:00.485Z</time>
      </trkpt>
      <trkpt lat="48.54883" lon="2.09418">
        <ele>122.008994</ele>
        <time>2025-10-14T15:47:10.627Z</time>
      </trkpt>
      <trkpt lat="48.54914" lon="2.09391">
        <ele>123.356425</ele>
        <time>2025-10-14T15:47:49.127Z</time>
      </trkpt>
      <trkpt lat="48.54952" lon="2.09371">
        <ele>124.899505</ele>
        <time>2025-10-14T15:48:36.741Z</time>
      </trkpt>
      <trkpt lat="48.54952" lon="2.09386">
        <ele>125.260239</ele>
        <time>2025-10-14T15:48:48.377Z</time>
      </trkpt>
      <trkpt lat="48.54952" lon="2.09371">
        <ele>125.620974</ele>
        <time>2025-10-14T15:49:00.303Z</time>
      </trkpt>
      <trkpt lat="48.5497" lon="2.09362">
        <ele>126.356145</ele>
        <time>2025-10-14T15:49:25.155Z</time>
      </trkpt>
      <trkpt lat="48.54999" lon="2.09364">
        <ele>128.814776</ele>
        <time>2025-10-14T15:50:03.338Z</time>
      </trkpt>
      <trkpt lat="48.55041" lon="2.09343">
        <ele>133.019111</ele>
        <time>2025-10-14T15:51:03.109Z</time>
      </trkpt>
      <trkpt lat="48.55104" lon="2.09312">
        <ele>139.332046</ele>
        <time>2025-10-14T15:52:33.564Z</time>
      </trkpt>
      <trkpt lat="48.55147" lon="2.09306">
        <ele>143.357749</ele>
        <time>2025-10-14T15:53:30.571Z</time>
      </trkpt>
      <trkpt lat="48.55153" lon="2.09306">
        <ele>143.726512</ele>
        <time>2025-10-14T15:53:39.098Z</time>
      </trkpt>
      <trkpt lat="48.55249" lon="2.09286">
        <ele>147.946288</ele>
        <time>2025-10-14T15:55:36.156Z</time>
      </trkpt>
      <trkpt lat="48.55213" lon="2.09198">
        <ele>150.951756</ele>
        <time>2025-10-14T15:56:49.382Z</time>
      </trkpt>
      <trkpt lat="48.55205" lon="2.09156">
        <ele>151.247397</ele>
        <time>2025-10-14T15:57:18.194Z</time>
      </trkpt>
      <trkpt lat="48.55192" lon="2.08964">
        <ele>150.510786</ele>
        <time>2025-10-14T15:59:28.981Z</time>
      </trkpt>
      <trkpt lat="48.55192" lon="2.08952">
        <ele>150.46395</ele>
        <time>2025-10-14T15:59:37.197Z</time>
      </trkpt>
      <trkpt lat="48.55193" lon="2.08837">
        <ele>150.308109</ele>
        <time>2025-10-14T16:00:53.557Z</time>
      </trkpt>
      <trkpt lat="48.55195" lon="2.08812">
        <ele>150.303875</ele>
        <time>2025-10-14T16:01:10.641Z</time>
      </trkpt>
      <trkpt lat="48.55196" lon="2.08807">
        <ele>150.303016</ele>
        <time>2025-10-14T16:01:14.128Z</time>
      </trkpt>
      <trkpt lat="48.55203" lon="2.08776">
        <ele>150.297706</ele>
        <time>2025-10-14T16:01:35.635Z</time>
      </trkpt>
      <trkpt lat="48.55205" lon="2.08752">
        <ele>150.293781</ele>
        <time>2025-10-14T16:01:51.530Z</time>
      </trkpt>
      <trkpt lat="48.55205" lon="2.08728">
        <ele>150.289757</ele>
        <time>2025-10-14T16:02:07.859Z</time>
      </trkpt>
      <trkpt lat="48.552" lon="2.08695">
        <ele>150.28425</ele>
        <time>2025-10-14T16:02:30.156Z</time>
      </trkpt>
      <trkpt lat="48.55198" lon="2.08622">
        <ele>150.413654</ele>
        <time>2025-10-14T16:03:19.116Z</time>
      </trkpt>
      <trkpt lat="48.55194" lon="2.08455">
        <ele>151.350791</ele>
        <time>2025-10-14T16:05:11.352Z</time>
      </trkpt>
      <trkpt lat="48.55205" lon="2.08453">
        <ele>151.44515</ele>
        <time>2025-10-14T16:05:22.949Z</time>
      </trkpt>
      <trkpt lat="48.55231" lon="2.08447">
        <ele>151.662183</ele>
        <time>2025-10-14T16:05:49.962Z</time>
      </trkpt>
      <trkpt lat="48.5527" lon="2.08453">
        <ele>152.243194</ele>
        <time>2025-10-14T16:06:32.785Z</time>
      </trkpt>
      <trkpt lat="48.55311" lon="2.08451">
        <ele>153.019295</ele>
        <time>2025-10-14T16:07:17.403Z</time>
      </trkpt>
      <trkpt lat="48.55351" lon="2.08465">
        <ele>153.782632</ele>
        <time>2025-10-14T16:08:01.324Z</time>
      </trkpt>
      <trkpt lat="48.55375" lon="2.08461">
        <ele>154.235324</ele>
        <time>2025-10-14T16:08:27.137Z</time>
      </trkpt>
      <trkpt lat="48.55418" lon="2.0846">
        <ele>155.045092</ele>
        <time>2025-10-14T16:09:12.993Z</time>
      </trkpt>
      <trkpt lat="48.55511" lon="2.08457">
        <ele>155.247161</ele>
        <time>2025-10-14T16:10:49.189Z</time>
      </trkpt>
      <trkpt lat="48.55525" lon="2.08462">
        <ele>155.255181</ele>
        <time>2025-10-14T16:11:03.570Z</time>
      </trkpt>
      <trkpt lat="48.55643" lon="2.0846">
        <ele>155.077631</ele>
        <time>2025-10-14T16:13:03.971Z</time>
      </trkpt>
      <trkpt lat="48.55646" lon="2.0846">
        <ele>155.060169</ele>
        <time>2025-10-14T16:13:07.003Z</time>
      </trkpt>
      <trkpt lat="48.5566" lon="2.08457">
        <ele>154.978079</ele>
        <time>2025-10-14T16:13:21.432Z</time>
      </trkpt>
      <trkpt lat="48.55666" lon="2.08448">
        <ele>154.930505</ele>
        <time>2025-10-14T16:13:29.801Z</time>
      </trkpt>
      <trkpt lat="48.55676" lon="2.08415">
        <ele>154.789241</ele>
        <time>2025-10-14T16:13:54.453Z</time>
      </trkpt>
      <trkpt lat="48.55696" lon="2.08393">
        <ele>154.647113</ele>
        <time>2025-10-14T16:14:19.169Z</time>
      </trkpt>
      <trkpt lat="48.55678" lon="2.0824">
        <ele>154.200406</ele>
        <time>2025-10-14T16:16:02.300Z</time>
      </trkpt>
      <trkpt lat="48.55678" lon="2.08211">
        <ele>154.170876</ele>
        <time>2025-10-14T16:16:21.906Z</time>
      </trkpt>
      <trkpt lat="48.55681" lon="2.08193">
        <ele>154.152991</ele>
        <time>2025-10-14T16:16:33.775Z</time>
      </trkpt>
      <trkpt lat="48.55686" lon="2.08169">
        <ele>154.127732</ele>
        <time>2025-10-14T16:16:50.473Z</time>
      </trkpt>
      <trkpt lat="48.55672" lon="2.08005">
        <ele>154.011042</ele>
        <time>2025-10-14T16:18:40.688Z</time>
      </trkpt>
      <trkpt lat="48.55672" lon="2.0793">
        <ele>154.129051</ele>
        <time>2025-10-14T16:19:30.163Z</time>
      </trkpt>
      <trkpt lat="48.55661" lon="2.0791">
        <ele>154.17055</ele>
        <time>2025-10-14T16:19:47.619Z</time>
      </trkpt>
      <trkpt lat="48.55638" lon="2.07881">
        <ele>154.242327</ele>
        <time>2025-10-14T16:20:17.930Z</time>
      </trkpt>
      <trkpt lat="48.55633" lon="2.07876">
        <ele>154.255405</ele>
        <time>2025-10-14T16:20:23.488Z</time>
      </trkpt>
      <trkpt lat="48.55594" lon="2.07026">
        <ele>157.090612</ele>
        <time>2025-10-14T16:30:00.370Z</time>
      </trkpt>
      <trkpt lat="48.55588" lon="2.06918">
        <ele>156.73353</ele>
        <time>2025-10-14T16:31:12.540Z</time>
      </trkpt>
      <trkpt lat="48.55586" lon="2.06896">
        <ele>156.50408</ele>
        <time>2025-10-14T16:31:27.390Z</time>
      </trkpt>
      <trkpt lat="48.55575" lon="2.06677">
        <ele>153.99241</ele>
        <time>2025-10-14T16:33:58.016Z</time>
      </trkpt>
      <trkpt lat="48.55566" lon="2.06502">
        <ele>149.616156</ele>
        <time>2025-10-14T16:36:03.381Z</time>
      </trkpt>
      <trkpt lat="48.55558" lon="2.06353">
        <ele>145.66273</ele>
        <time>2025-10-14T16:37:52.353Z</time>
      </trkpt>
      <trkpt lat="48.55588" lon="2.06282">
        <ele>143.29377</ele>
        <time>2025-10-14T16:38:53.701Z</time>
      </trkpt>
      <trkpt lat="48.55636" lon="2.06226">
        <ele>140.705976</ele>
        <time>2025-10-14T16:39:59.747Z</time>
      </trkpt>
      <trkpt lat="48.55659" lon="2.06114">
        <ele>139.412911</ele>
        <time>2025-10-14T16:41:21.134Z</time>
      </trkpt>
      <trkpt lat="48.55668" lon="2.061">
        <ele>139.29321</ele>
        <time>2025-10-14T16:41:34.195Z</time>
      </trkpt>
      <trkpt lat="48.55685" lon="2.06074">
        <ele>139.062119</ele>
        <time>2025-10-14T16:41:59.210Z</time>
      </trkpt>
      <trkpt lat="48.55737" lon="2.05997">
        <ele>138.386572</ele>
        <time>2025-10-14T16:43:14.247Z</time>
      </trkpt>
      <trkpt lat="48.5576" lon="2.05993">
        <ele>137.729094</ele>
        <time>2025-10-14T16:43:38.125Z</time>
      </trkpt>
      <trkpt lat="48.55778" lon="2.05971">
        <ele>136.830557</ele>
        <time>2025-10-14T16:44:01.903Z</time>
      </trkpt>
      <trkpt lat="48.55799" lon="2.0596">
        <ele>135.932923</ele>
        <time>2025-10-14T16:44:25.939Z</time>
      </trkpt>
      <trkpt lat="48.55809" lon="2.05952">
        <ele>135.490593</ele>
        <time>2025-10-14T16:44:38.062Z</time>
      </trkpt>
      <trkpt lat="48.55858" lon="2.05901">
        <ele>133.159326</ele>
        <time>2025-10-14T16:45:43.011Z</time>
      </trkpt>
      <trkpt lat="48.55878" lon="2.05901">
        <ele>132.361756</ele>
        <time>2025-10-14T16:46:05.836Z</time>
      </trkpt>
      <trkpt lat="48.55922" lon="2.05886">
        <ele>130.104641</ele>
        <time>2025-10-14T16:46:57.101Z</time>
      </trkpt>
      <trkpt lat="48.55935" lon="2.05892">
        <ele>129.128541</ele>
        <time>2025-10-14T16:47:12.779Z</time>
      </trkpt>
      <trkpt lat="48.55939" lon="2.05898">
        <ele>128.703927</ele>
        <time>2025-10-14T16:47:19.700Z</time>
      </trkpt>
      <trkpt lat="48.55982" lon="2.05903">
        <ele>125.676546</ele>
        <time>2025-10-14T16:48:08.015Z</time>
      </trkpt>
      <trkpt lat="48.55993" lon="2.05907">
        <ele>124.828866</ele>
        <time>2025-10-14T16:48:21.496Z</time>
      </trkpt>
      <trkpt lat="48.56149" lon="2.05903">
        <ele>113.37563</ele>
        <time>2025-10-14T16:51:20.602Z</time>
      </trkpt>
      <trkpt lat="48.56198" lon="2.05922">
        <ele>109.466877</ele>
        <time>2025-10-14T16:52:20.263Z</time>
      </trkpt>
      <trkpt lat="48.56262" lon="2.05923">
        <ele>104.57146</ele>
        <time>2025-10-14T16:53:34.124Z</time>
      </trkpt>
      <trkpt lat="48.56267" lon="2.05923">
        <ele>104.621819</ele>
        <time>2025-10-14T16:53:40.776Z</time>
      </trkpt>
      <trkpt lat="48.56267" lon="2.05987">
        <ele>104.985561</ele>
        <time>2025-10-14T16:54:27.321Z</time>
      </trkpt>
      <trkpt lat="48.56266" lon="2.06038">
        <ele>105.280349</ele>
        <time>2025-10-14T16:55:02.829Z</time>
      </trkpt>
      <trkpt lat="48.56268" lon="2.0606">
        <ele>105.406926</ele>
        <time>2025-10-14T16:55:17.756Z</time>
      </trkpt>
      <trkpt lat="48.56278" lon="2.06103">
        <ele>105.67096</ele>
        <time>2025-10-14T16:55:51.536Z</time>
      </trkpt>
      <trkpt lat="48.56287" lon="2.06147">
        <ele>105.934994</ele>
        <time>2025-10-14T16:56:27.951Z</time>
      </trkpt>
      <trkpt lat="48.56281" lon="2.06143">
        <ele>105.989024</ele>
        <time>2025-10-14T16:56:35.809Z</time>
      </trkpt>
      <trkpt lat="48.56245" lon="2.06143">
        <ele>108.759717</ele>
        <time>2025-10-14T16:57:23.233Z</time>
      </trkpt>
      <trkpt lat="48.56205" lon="2.06162">
        <ele>114.171072</ele>
        <time>2025-10-14T16:58:23.031Z</time>
      </trkpt>
      <trkpt lat="48.56177" lon="2.06191">
        <ele>118.532962</ele>
        <time>2025-10-14T16:59:18.657Z</time>
      </trkpt>
      <trkpt lat="48.56167" lon="2.06199">
        <ele>120.083501</ele>
        <time>2025-10-14T16:59:38.830Z</time>
      </trkpt>
      <trkpt lat="48.56139" lon="2.06215">
        <ele>123.916557</ele>
        <time>2025-10-14T17:00:28.610Z</time>
      </trkpt>
      <trkpt lat="48.56114" lon="2.06222">
        <ele>127.259386</ele>
        <time>2025-10-14T17:01:11.190Z</time>
      </trkpt>
      <trkpt lat="48.56101" lon="2.06231">
        <ele>128.986874</ele>
        <time>2025-10-14T17:01:33.205Z</time>
      </trkpt>
      <trkpt lat="48.56076" lon="2.06267">
        <ele>132.928973</ele>
        <time>2025-10-14T17:02:29.496Z</time>
      </trkpt>
      <trkpt lat="48.56002" lon="2.06387">
        <ele>145.055039</ele>
        <time>2025-10-14T17:05:04.247Z</time>
      </trkpt>
      <trkpt lat="48.55944" lon="2.06437">
        <ele>150.479494</ele>
        <time>2025-10-14T17:06:27.292Z</time>
      </trkpt>
      <trkpt lat="48.55932" lon="2.0645">
        <ele>151.015336</ele>
        <time>2025-10-14T17:06:44.945Z</time>
      </trkpt>
      <trkpt lat="48.55923" lon="2.06465">
        <ele>151.482745</ele>
        <time>2025-10-14T17:07:00.151Z</time>
      </trkpt>
      <trkpt lat="48.55917" lon="2.06484">
        <ele>151.986593</ele>
        <time>2025-10-14T17:07:16.238Z</time>
      </trkpt>
      <trkpt lat="48.55905" lon="2.06494">
        <ele>152.496304</ele>
        <time>2025-10-14T17:07:32.167Z</time>
      </trkpt>
      <trkpt lat="48.5589" lon="2.06513">
        <ele>153.179902</ele>
        <time>2025-10-14T17:07:53.299Z</time>
      </trkpt>
      <trkpt lat="48.55877" lon="2.06515">
        <ele>153.656369</ele>
        <time>2025-10-14T17:08:07.555Z</time>
      </trkpt>
      <trkpt lat="48.55811" lon="2.06581">
        <ele>156.007426</ele>
        <time>2025-10-14T17:09:30.227Z</time>
      </trkpt>
      <trkpt lat="48.55789" lon="2.06591">
        <ele>156.074272</ele>
        <time>2025-10-14T17:09:53.382Z</time>
      </trkpt>
      <trkpt lat="48.55758" lon="2.06642">
        <ele>156.207528</ele>
        <time>2025-10-14T17:10:39.092Z</time>
      </trkpt>
      <trkpt lat="48.55738" lon="2.06675">
        <ele>156.29367</ele>
        <time>2025-10-14T17:11:08.668Z</time>
      </trkpt>
      <trkpt lat="48.55689" lon="2.06723">
        <ele>156.463363</ele>
        <time>2025-10-14T17:12:06.990Z</time>
      </trkpt>
      <trkpt lat="48.55655" lon="2.06773">
        <ele>156.192616</ele>
        <time>2025-10-14T17:12:55.598Z</time>
      </trkpt>
      <trkpt lat="48.55631" lon="2.06809">
        <ele>155.931346</ele>
        <time>2025-10-14T17:13:29.495Z</time>
      </trkpt>
      <trkpt lat="48.55586" lon="2.06896">
        <ele>155.369616</ele>
        <time>2025-10-14T17:14:44.356Z</time>
      </trkpt>
      <trkpt lat="48.55581" lon="2.06914">
        <ele>155.265866</ele>
        <time>2025-10-14T17:14:58.209Z</time>
      </trkpt>
      <trkpt lat="48.55543" lon="2.06897">
        <ele>154.944042</ele>
        <time>2025-10-14T17:15:39.798Z</time>
      </trkpt>
      <trkpt lat="48.55529" lon="2.06892">
        <ele>154.822726</ele>
        <time>2025-10-14T17:15:54.823Z</time>
      </trkpt>
      <trkpt lat="48.55485" lon="2.06892">
        <ele>154.459677</ele>
        <time>2025-10-14T17:16:40.037Z</time>
      </trkpt>
      <trkpt lat="48.55469" lon="2.06984">
        <ele>153.934762</ele>
        <time>2025-10-14T17:17:44.078Z</time>
      </trkpt>
      <trkpt lat="48.55475" lon="2.07011">
        <ele>153.77324</ele>
        <time>2025-10-14T17:18:03.786Z</time>
      </trkpt>
      <trkpt lat="48.55493" lon="2.07053">
        <ele>153.594869</ele>
        <time>2025-10-14T17:18:37.823Z</time>
      </trkpt>
      <trkpt lat="48.55498" lon="2.07095">
        <ele>153.581051</ele>
        <time>2025-10-14T17:19:06.754Z</time>
      </trkpt>
      <trkpt lat="48.55494" lon="2.07123">
        <ele>153.571947</ele>
        <time>2025-10-14T17:19:25.644Z</time>
      </trkpt>
      <trkpt lat="48.55463" lon="2.07201">
        <ele>153.542418</ele>
        <time>2025-10-14T17:20:26.101Z</time>
      </trkpt>
      <trkpt lat="48.55408" lon="2.07336">
        <ele>153.119088</ele>
        <time>2025-10-14T17:22:12.512Z</time>
      </trkpt>
      <trkpt lat="48.5534" lon="2.07583">
        <ele>151.54232</ele>
        <time>2025-10-14T17:25:13.210Z</time>
      </trkpt>
      <trkpt lat="48.55231" lon="2.07854">
        <ele>149.730266</ele>
        <time>2025-10-14T17:28:47.239Z</time>
      </trkpt>
      <trkpt lat="48.55185" lon="2.08118">
        <ele>148.538768</ele>
        <time>2025-10-14T17:31:50.718Z</time>
      </trkpt>
      <trkpt lat="48.54992" lon="2.08124">
        <ele>148.195826</ele>
        <time>2025-10-14T17:35:05.406Z</time>
      </trkpt>
      <trkpt lat="48.54808" lon="2.0813">
        <ele>150.0097</ele>
        <time>2025-10-14T17:38:16.811Z</time>
      </trkpt>
      <trkpt lat="48.54485" lon="2.08134">
        <ele>155.975455</ele>
        <time>2025-10-14T17:44:07.154Z</time>
      </trkpt>
      <trkpt lat="48.54485" lon="2.08134">
        <ele>155.976464</ele>
        <time>2025-10-14T17:44:07.400Z</time>
      </trkpt>
      <trkpt lat="48.54524" lon="2.08293">
        <ele>156.484455</ele>
        <time>2025-10-14T17:45:59.992Z</time>
      </trkpt>
      <trkpt lat="48.54533" lon="2.0834">
        <ele>156.336155</ele>
        <time>2025-10-14T17:46:33.667Z</time>
      </trkpt>
      <trkpt lat="48.54552" lon="2.08392">
        <ele>155.882169</ele>
        <time>2025-10-14T17:47:13.832Z</time>
      </trkpt>
      <trkpt lat="48.5458" lon="2.08446">
        <ele>155.352977</ele>
        <time>2025-10-14T17:48:00.660Z</time>
      </trkpt>
      <trkpt lat="48.54606" lon="2.08506">
        <ele>154.804268</ele>
        <time>2025-10-14T17:48:49.147Z</time>
      </trkpt>
      <trkpt lat="48.5463" lon="2.08592">
        <ele>153.870869</ele>
        <time>2025-10-14T17:49:52.165Z</time>
      </trkpt>
      <trkpt lat="48.54646" lon="2.08669">
        <ele>152.886157</ele>
        <time>2025-10-14T17:50:47.239Z</time>
      </trkpt>
      <trkpt lat="48.54653" lon="2.08735">
        <ele>152.069859</ele>
        <time>2025-10-14T17:51:33.361Z</time>
      </trkpt>
      <trkpt lat="48.54645" lon="2.08796">
        <ele>151.312307</ele>
        <time>2025-10-14T17:52:16.545Z</time>
      </trkpt>
      <trkpt lat="48.54628" lon="2.0887">
        <ele>149.978195</ele>
        <time>2025-10-14T17:53:11.783Z</time>
      </trkpt>
      <trkpt lat="48.54619" lon="2.08899">
        <ele>149.415144</ele>
        <time>2025-10-14T17:53:33.822Z</time>
      </trkpt>
      <trkpt lat="48.54586" lon="2.09002">
        <ele>147.339775</ele>
        <time>2025-10-14T17:54:54.482Z</time>
      </trkpt>
      <trkpt lat="48.54542" lon="2.09157">
        <ele>143.01281</ele>
        <time>2025-10-14T17:56:52.391Z</time>
      </trkpt>
      <trkpt lat="48.54527" lon="2.09182">
        <ele>142.022778</ele>
        <time>2025-10-14T17:57:16.621Z</time>
      </trkpt>
      <trkpt lat="48.5451" lon="2.09204">
        <ele>140.99445</ele>
        <time>2025-10-14T17:57:42.348Z</time>
      </trkpt>
      <trkpt lat="48.54498" lon="2.09228">
        <ele>140.091857</ele>
        <time>2025-10-14T17:58:04.960Z</time>
      </trkpt>
      <trkpt lat="48.54486" lon="2.09282">
        <ele>138.384975</ele>
        <time>2025-10-14T17:58:47.324Z</time>
      </trkpt>
      <trkpt lat="48.54482" lon="2.09325">
        <ele>137.642673</ele>
        <time>2025-10-14T17:59:19.305Z</time>
      </trkpt>
      <trkpt lat="48.54459" lon="2.09319">
        <ele>137.165003</ele>
        <time>2025-10-14T17:59:44.262Z</time>
      </trkpt>
      <trkpt lat="48.54418" lon="2.09205">
        <ele>135.358852</ele>
        <time>2025-10-14T18:01:14.534Z</time>
      </trkpt>
      <trkpt lat="48.54389" lon="2.09155">
        <ele>134.416769</ele>
        <time>2025-10-14T18:02:01.744Z</time>
      </trkpt>
      <trkpt lat="48.54388" lon="2.0911">
        <ele>134.882213</ele>
        <time>2025-10-14T18:02:33.953Z</time>
      </trkpt>
      <trkpt lat="48.54378" lon="2.09082">
        <ele>135.321101</ele>
        <time>2025-10-14T18:02:56.669Z</time>
      </trkpt>
      <trkpt lat="48.54378" lon="2.09039">
        <ele>135.915633</ele>
        <time>2025-10-14T18:03:27.309Z</time>
      </trkpt>
      <trkpt lat="48.54381" lon="2.09014">
        <ele>136.260384</ele>
        <time>2025-10-14T18:03:45.102Z</time>
      </trkpt>
      <trkpt lat="48.5438" lon="2.08962">
        <ele>136.983936</ele>
        <time>2025-10-14T18:04:22.444Z</time>
      </trkpt>
      <trkpt lat="48.5438" lon="2.08959">
        <ele>137.025467</ele>
        <time>2025-10-14T18:04:24.613Z</time>
      </trkpt>
      <trkpt lat="48.54383" lon="2.08902">
        <ele>137.81089</ele>
        <time>2025-10-14T18:05:05.299Z</time>
      </trkpt>
      <trkpt lat="48.5437" lon="2.08886">
        <ele>138.156238</ele>
        <time>2025-10-14T18:05:23.363Z</time>
      </trkpt>
      <trkpt lat="48.54355" lon="2.0885">
        <ele>138.728206</ele>
        <time>2025-10-14T18:05:53.636Z</time>
      </trkpt>
      <trkpt lat="48.54347" lon="2.08811">
        <ele>139.291443</ele>
        <time>2025-10-14T18:06:23.468Z</time>
      </trkpt>
      <trkpt lat="48.54341" lon="2.08744">
        <ele>140.214715</ele>
        <time>2025-10-14T18:07:12.518Z</time>
      </trkpt>
      <trkpt lat="48.54341" lon="2.08691">
        <ele>140.937283</ele>
        <time>2025-10-14T18:07:50.440Z</time>
      </trkpt>
      <trkpt lat="48.54341" lon="2.08682">
        <ele>141.054309</ele>
        <time>2025-10-14T18:07:56.484Z</time>
      </trkpt>
      <trkpt lat="48.54343" lon="2.0865">
        <ele>141.488723</ele>
        <time>2025-10-14T18:08:18.791Z</time>
      </trkpt>
      <trkpt lat="48.54349" lon="2.08628">
        <ele>141.794174</ele>
        <time>2025-10-14T18:08:35.555Z</time>
      </trkpt>
      <trkpt lat="48.54349" lon="2.08594">
        <ele>141.825414</ele>
        <time>2025-10-14T18:08:58.437Z</time>
      </trkpt>
      <trkpt lat="48.54354" lon="2.0857">
        <ele>141.848914</ele>
        <time>2025-10-14T18:09:15.577Z</time>
      </trkpt>
      <trkpt lat="48.54341" lon="2.08516">
        <ele>141.902645</ele>
        <time>2025-10-14T18:09:54.553Z</time>
      </trkpt>
      <trkpt lat="48.54323" lon="2.0849">
        <ele>141.936947</ele>
        <time>2025-10-14T18:10:19.416Z</time>
      </trkpt>
      <trkpt lat="48.54301" lon="2.08471">
        <ele>141.972615</ele>
        <time>2025-10-14T18:10:45.165Z</time>
      </trkpt>
      <trkpt lat="48.54292" lon="2.08445">
        <ele>141.999724</ele>
        <time>2025-10-14T18:11:04.616Z</time>
      </trkpt>
      <trkpt lat="48.54291" lon="2.08413">
        <ele>142.029259</ele>
        <time>2025-10-14T18:11:25.985Z</time>
      </trkpt>
      <trkpt lat="48.54305" lon="2.08389">
        <ele>141.942912</ele>
        <time>2025-10-14T18:11:47.626Z</time>
      </trkpt>
      <trkpt lat="48.54308" lon="2.0837">
        <ele>141.815868</ele>
        <time>2025-10-14T18:12:00.985Z</time>
      </trkpt>
      <trkpt lat="48.54318" lon="2.08355">
        <ele>141.677999</ele>
        <time>2025-10-14T18:12:15.539Z</time>
      </trkpt>
      <trkpt lat="48.54322" lon="2.0834">
        <ele>141.574413</ele>
        <time>2025-10-14T18:12:26.549Z</time>
      </trkpt>
      <trkpt lat="48.54301" lon="2.08295">
        <ele>141.217102</ele>
        <time>2025-10-14T18:13:04.527Z</time>
      </trkpt>
      <trkpt lat="48.54296" lon="2.08275">
        <ele>141.077437</ele>
        <time>2025-10-14T18:13:19.254Z</time>
      </trkpt>
      <trkpt lat="48.54257" lon="2.08274">
        <ele>140.69198</ele>
        <time>2025-10-14T18:13:59.651Z</time>
      </trkpt>
      <trkpt lat="48.54248" lon="2.08274">
        <ele>140.597585</ele>
        <time>2025-10-14T18:14:09.511Z</time>
      </trkpt>
      <trkpt lat="48.54255" lon="2.08208">
        <ele>140.605943</ele>
        <time>2025-10-14T18:14:54.180Z</time>
      </trkpt>
      <trkpt lat="48.54255" lon="2.0817">
        <ele>141.307933</ele>
        <time>2025-10-14T18:15:20.443Z</time>
      </trkpt>
      <trkpt lat="48.54265" lon="2.08158">
        <ele>141.684768</ele>
        <time>2025-10-14T18:15:35.131Z</time>
      </trkpt>
      <trkpt lat="48.54274" lon="2.08161">
        <ele>141.952855</ele>
        <time>2025-10-14T18:15:45.661Z</time>
      </trkpt>
      <trkpt lat="48.54291" lon="2.08196">
        <ele>142.760081</ele>
        <time>2025-10-14T18:16:19.161Z</time>
      </trkpt>
      <trkpt lat="48.54305" lon="2.08181">
        <ele>143.233392</ele>
        <time>2025-10-14T18:16:39.643Z</time>
      </trkpt>
      <trkpt lat="48.54316" lon="2.08159">
        <ele>143.75404</ele>
        <time>2025-10-14T18:17:02.567Z</time>
      </trkpt>
      <trkpt lat="48.54322" lon="2.08137">
        <ele>144.205821</ele>
        <time>2025-10-14T18:17:21.990Z</time>
      </trkpt>
      <trkpt lat="48.54321" lon="2.08118">
        <ele>144.555423</ele>
        <time>2025-10-14T18:17:36.542Z</time>
      </trkpt>
      <trkpt lat="48.54333" lon="2.08101">
        <ele>145.023606</ele>
        <time>2025-10-14T18:17:55.242Z</time>
      </trkpt>
      <trkpt lat="48.54379" lon="2.08094">
        <ele>143.060947</ele>
        <time>2025-10-14T18:18:42.234Z</time>
      </trkpt>
      <trkpt lat="48.54388" lon="2.08097">
        <ele>142.468372</ele>
        <time>2025-10-14T18:18:51.600Z</time>
      </trkpt>
      <trkpt lat="48.5429" lon="2.07984">
        <ele>134.443529</ele>
        <time>2025-10-14T18:21:15.823Z</time>
      </trkpt>
      <trkpt lat="48.54257" lon="2.07984">
        <ele>130.944497</ele>
        <time>2025-10-14T18:21:57.002Z</time>
      </trkpt>
      <trkpt lat="48.54236" lon="2.0797">
        <ele>127.858958</ele>
        <time>2025-10-14T18:22:26.067Z</time>
      </trkpt>
      <trkpt lat="48.54218" lon="2.0795">
        <ele>124.8239</ele>
        <time>2025-10-14T18:22:54.612Z</time>
      </trkpt>
      <trkpt lat="48.54185" lon="2.07891">
        <ele>117.896758</ele>
        <time>2025-10-14T18:24:00.402Z</time>
      </trkpt>
      <trkpt lat="48.54169" lon="2.07878">
        <ele>115.460638</ele>
        <time>2025-10-14T18:24:23.346Z</time>
      </trkpt>
      <trkpt lat="48.54125" lon="2.07897">
        <ele>109.333335</ele>
        <time>2025-10-14T18:25:20.467Z</time>
      </trkpt>
      <trkpt lat="48.54105" lon="2.07906">
        <ele>106.729237</ele>
        <time>2025-10-14T18:25:47.237Z</time>
      </trkpt>
      <trkpt lat="48.54071" lon="2.07912">
        <ele>102.543659</ele>
        <time>2025-10-14T18:26:30.684Z</time>
      </trkpt>
      <trkpt lat="48.54032" lon="2.07883">
        <ele>97.073189</ele>
        <time>2025-10-14T18:27:27.263Z</time>
      </trkpt>
      <trkpt lat="48.54007" lon="2.07879">
        <ele>94.025504</ele>
        <time>2025-10-14T18:27:58.149Z</time>
      </trkpt>
      <trkpt lat="48.53993" lon="2.07887">
        <ele>92.126988</ele>
        <time>2025-10-14T18:28:17.052Z</time>
      </trkpt>
      <trkpt lat="48.53934" lon="2.07943">
        <ele>87.023165</ele>
        <time>2025-10-14T18:29:39.170Z</time>
      </trkpt>
      <trkpt lat="48.53931" lon="2.07939">
        <ele>87.023165</ele>
        <time>2025-10-14T18:29:43.904Z</time>
      </trkpt>
      <trkpt lat="48.53924" lon="2.07942">
        <ele>87.023165</ele>
        <time>2025-10-14T18:29:51.533Z</time>
      </trkpt>
      <trkpt lat="48.53923" lon="2.07952">
        <ele>87.023165</ele>
        <time>2025-10-14T18:29:59.117Z</time>
      </trkpt>
      <trkpt lat="48.53893" lon="2.07975">
        <ele>87.023165</ele>
        <time>2025-10-14T18:30:35.803Z</time>
      </trkpt>
      <trkpt lat="48.53885" lon="2.07981">
        <ele>87.023165</ele>
        <time>2025-10-14T18:30:45.157Z</time>
      </trkpt>
      <trkpt lat="48.53876" lon="2.07987">
        <ele>87.023165</ele>
        <time>2025-10-14T18:30:55.405Z</time>
      </trkpt>
      <trkpt lat="48.53863" lon="2.07959">
        <ele>87.023165</ele>
        <time>2025-10-14T18:31:18.310Z</time>
      </trkpt>
      <trkpt lat="48.53866" lon="2.07945">
        <ele>87.023165</ele>
        <time>2025-10-14T18:31:28.449Z</time>
      </trkpt>
      <trkpt lat="48.53871" lon="2.0794">
        <ele>87.023165</ele>
        <time>2025-10-14T18:31:34.316Z</time>
      </trkpt>
      <trkpt lat="48.5388" lon="2.07932">
        <ele>87.023165</ele>
        <time>2025-10-14T18:31:44.736Z</time>
      </trkpt>
    </trkseg>
  </trk>
</gpx>